sensor_id;sensor_type;location;lat;lon;timestamp;temperature;humidity
4518;DHT22;2271;49.464;11.070;2023-09-30T00:02:12;19.30;99.90
4518;DHT22;2271;49.464;11.070;2023-09-30T00:04:39;19.30;99.90
4518;DHT22;2271;49.464;11.070;2023-09-30T00:07:04;19.30;99.90
4518;DHT22;2271;49.464;11.070;2023-09-30T00:09:30;19.30;99.90
4518;DHT22;2271;49.464;11.070;2023-09-30T00:11:56;19.30;99.90
4518;DHT22;2271;49.464;11.070;2023-09-30T00:14:22;19.20;99.90
4518;DHT22;2271;49.464;11.070;2023-09-30T00:16:47;19.20;99.90
4518;DHT22;2271;49.464;11.070;2023-09-30T00:19:13;19.20;99.90
4518;DHT22;2271;49.464;11.070;2023-09-30T00:21:39;19.20;99.90
4518;DHT22;2271;49.464;11.070;2023-09-30T00:24:05;19.10;99.90
4518;DHT22;2271;49.464;11.070;2023-09-30T00:26:30;19.10;99.90
4518;DHT22;2271;49.464;11.070;2023-09-30T00:28:56;19.10;99.90
4518;DHT22;2271;49.464;11.070;2023-09-30T00:31:22;19.00;99.90
4518;DHT22;2271;49.464;11.070;2023-09-30T00:33:47;19.10;99.90
4518;DHT22;2271;49.464;11.070;2023-09-30T00:36:13;19.00;99.90
4518;DHT22;2271;49.464;11.070;2023-09-30T00:38:39;19.00;99.90
4518;DHT22;2271;49.464;11.070;2023-09-30T00:41:05;18.90;99.90
4518;DHT22;2271;49.464;11.070;2023-09-30T00:43:32;18.90;99.90
4518;DHT22;2271;49.464;11.070;2023-09-30T00:46:02;18.90;99.90
4518;DHT22;2271;49.464;11.070;2023-09-30T00:48:28;19.00;99.90
4518;DHT22;2271;49.464;11.070;2023-09-30T00:50:54;19.00;99.90
4518;DHT22;2271;49.464;11.070;2023-09-30T00:53:21;19.10;99.90
4518;DHT22;2271;49.464;11.070;2023-09-30T00:55:47;19.00;99.90
4518;DHT22;2271;49.464;11.070;2023-09-30T00:58:12;19.00;99.90
4518;DHT22;2271;49.464;11.070;2023-09-30T01:00:38;18.90;99.90
4518;DHT22;2271;49.464;11.070;2023-09-30T01:03:05;18.90;99.90
4518;DHT22;2271;49.464;11.070;2023-09-30T01:05:31;19.00;99.90
4518;DHT22;2271;49.464;11.070;2023-09-30T01:07:57;18.90;99.90
4518;DHT22;2271;49.464;11.070;2023-09-30T01:10:23;19.00;99.90
4518;DHT22;2271;49.464;11.070;2023-09-30T01:12:49;19.00;99.90
4518;DHT22;2271;49.464;11.070;2023-09-30T01:15:15;19.00;99.90
4518;DHT22;2271;49.464;11.070;2023-09-30T01:17:40;18.90;99.90
4518;DHT22;2271;49.464;11.070;2023-09-30T01:20:06;18.90;99.90
4518;DHT22;2271;49.464;11.070;2023-09-30T01:22:33;19.00;99.90
4518;DHT22;2271;49.464;11.070;2023-09-30T01:24:59;19.00;99.90
4518;DHT22;2271;49.464;11.070;2023-09-30T01:27:25;19.00;99.90
4518;DHT22;2271;49.464;11.070;2023-09-30T01:29:51;19.00;99.90
4518;DHT22;2271;49.464;11.070;2023-09-30T01:32:16;19.00;99.90
4518;DHT22;2271;49.464;11.070;2023-09-30T01:34:42;19.00;99.90
4518;DHT22;2271;49.464;11.070;2023-09-30T01:37:08;19.00;99.90
4518;DHT22;2271;49.464;11.070;2023-09-30T01:39:33;19.00;99.90
4518;DHT22;2271;49.464;11.070;2023-09-30T01:41:59;19.00;99.90
4518;DHT22;2271;49.464;11.070;2023-09-30T01:44:25;19.00;99.90
4518;DHT22;2271;49.464;11.070;2023-09-30T01:46:51;19.00;99.90
4518;DHT22;2271;49.464;11.070;2023-09-30T01:49:17;19.00;99.90
4518;DHT22;2271;49.464;11.070;2023-09-30T01:51:43;19.00;99.90
4518;DHT22;2271;49.464;11.070;2023-09-30T01:54:09;19.00;99.90
4518;DHT22;2271;49.464;11.070;2023-09-30T01:56:36;19.00;99.90
4518;DHT22;2271;49.464;11.070;2023-09-30T01:59:02;19.00;99.90
4518;DHT22;2271;49.464;11.070;2023-09-30T02:01:28;19.00;99.90
4518;DHT22;2271;49.464;11.070;2023-09-30T02:03:53;19.00;99.90
4518;DHT22;2271;49.464;11.070;2023-09-30T02:06:19;19.00;99.90
4518;DHT22;2271;49.464;11.070;2023-09-30T02:08:44;19.00;99.90
4518;DHT22;2271;49.464;11.070;2023-09-30T02:11:10;19.00;99.90
4518;DHT22;2271;49.464;11.070;2023-09-30T02:13:38;19.00;99.90
4518;DHT22;2271;49.464;11.070;2023-09-30T02:16:05;19.00;99.90
4518;DHT22;2271;49.464;11.070;2023-09-30T02:18:30;19.00;99.90
4518;DHT22;2271;49.464;11.070;2023-09-30T02:20:57;19.00;99.90
4518;DHT22;2271;49.464;11.070;2023-09-30T02:23:25;19.00;99.90
4518;DHT22;2271;49.464;11.070;2023-09-30T02:25:50;19.00;99.90
4518;DHT22;2271;49.464;11.070;2023-09-30T02:28:16;19.10;99.90
4518;DHT22;2271;49.464;11.070;2023-09-30T02:30:42;19.10;99.90
4518;DHT22;2271;49.464;11.070;2023-09-30T02:33:07;19.10;99.90
4518;DHT22;2271;49.464;11.070;2023-09-30T02:35:33;19.00;99.90
4518;DHT22;2271;49.464;11.070;2023-09-30T02:37:58;19.00;99.90
4518;DHT22;2271;49.464;11.070;2023-09-30T02:40:24;19.00;99.90
4518;DHT22;2271;49.464;11.070;2023-09-30T02:42:51;19.00;99.90
4518;DHT22;2271;49.464;11.070;2023-09-30T02:45:17;19.00;99.90
4518;DHT22;2271;49.464;11.070;2023-09-30T02:47:43;19.00;99.90
4518;DHT22;2271;49.464;11.070;2023-09-30T02:50:09;19.00;99.90
4518;DHT22;2271;49.464;11.070;2023-09-30T02:52:38;18.90;99.90
4518;DHT22;2271;49.464;11.070;2023-09-30T02:55:08;18.90;99.90
4518;DHT22;2271;49.464;11.070;2023-09-30T02:57:34;18.90;99.90
4518;DHT22;2271;49.464;11.070;2023-09-30T03:00:02;18.90;99.90
4518;DHT22;2271;49.464;11.070;2023-09-30T03:02:37;18.80;99.90
4518;DHT22;2271;49.464;11.070;2023-09-30T03:05:03;18.80;99.90
4518;DHT22;2271;49.464;11.070;2023-09-30T03:07:30;18.80;99.90
4518;DHT22;2271;49.464;11.070;2023-09-30T03:09:55;18.90;99.90
4518;DHT22;2271;49.464;11.070;2023-09-30T03:12:21;18.80;99.90
4518;DHT22;2271;49.464;11.070;2023-09-30T03:14:46;18.80;99.90
4518;DHT22;2271;49.464;11.070;2023-09-30T03:17:12;18.80;99.90
4518;DHT22;2271;49.464;11.070;2023-09-30T03:19:38;18.80;99.90
4518;DHT22;2271;49.464;11.070;2023-09-30T03:22:04;18.80;99.90
4518;DHT22;2271;49.464;11.070;2023-09-30T03:24:30;18.80;99.90
4518;DHT22;2271;49.464;11.070;2023-09-30T03:26:55;18.80;99.90
4518;DHT22;2271;49.464;11.070;2023-09-30T03:29:22;18.70;99.90
4518;DHT22;2271;49.464;11.070;2023-09-30T03:31:47;18.70;99.90
4518;DHT22;2271;49.464;11.070;2023-09-30T03:34:13;18.80;99.90
4518;DHT22;2271;49.464;11.070;2023-09-30T03:36:41;18.70;99.90
4518;DHT22;2271;49.464;11.070;2023-09-30T03:39:07;18.70;99.90
4518;DHT22;2271;49.464;11.070;2023-09-30T03:41:34;18.70;99.90
4518;DHT22;2271;49.464;11.070;2023-09-30T03:44:03;18.70;99.90
4518;DHT22;2271;49.464;11.070;2023-09-30T03:46:28;18.70;99.90
4518;DHT22;2271;49.464;11.070;2023-09-30T03:48:55;18.70;99.90
4518;DHT22;2271;49.464;11.070;2023-09-30T03:51:21;18.60;99.90
4518;DHT22;2271;49.464;11.070;2023-09-30T03:53:48;18.70;99.90
4518;DHT22;2271;49.464;11.070;2023-09-30T03:56:15;18.60;99.90
4518;DHT22;2271;49.464;11.070;2023-09-30T03:58:44;18.60;99.90
4518;DHT22;2271;49.464;11.070;2023-09-30T04:01:10;18.60;99.90
4518;DHT22;2271;49.464;11.070;2023-09-30T04:03:39;18.50;99.90
4518;DHT22;2271;49.464;11.070;2023-09-30T04:06:05;18.50;99.90
4518;DHT22;2271;49.464;11.070;2023-09-30T04:08:34;18.50;99.90
4518;DHT22;2271;49.464;11.070;2023-09-30T04:11:01;18.50;99.90
4518;DHT22;2271;49.464;11.070;2023-09-30T04:13:28;18.50;99.90
4518;DHT22;2271;49.464;11.070;2023-09-30T04:15:55;18.50;99.90
4518;DHT22;2271;49.464;11.070;2023-09-30T04:18:20;18.40;99.90
4518;DHT22;2271;49.464;11.070;2023-09-30T04:20:47;18.40;99.90
4518;DHT22;2271;49.464;11.070;2023-09-30T04:23:13;18.40;99.90
4518;DHT22;2271;49.464;11.070;2023-09-30T04:25:39;18.30;99.90
4518;DHT22;2271;49.464;11.070;2023-09-30T04:28:06;18.30;99.90
4518;DHT22;2271;49.464;11.070;2023-09-30T04:30:32;18.30;99.90
4518;DHT22;2271;49.464;11.070;2023-09-30T04:32:59;18.20;99.90
4518;DHT22;2271;49.464;11.070;2023-09-30T04:35:24;18.20;99.90
4518;DHT22;2271;49.464;11.070;2023-09-30T04:37:51;18.20;99.90
4518;DHT22;2271;49.464;11.070;2023-09-30T04:40:16;18.20;99.90
4518;DHT22;2271;49.464;11.070;2023-09-30T04:42:45;18.20;99.90
4518;DHT22;2271;49.464;11.070;2023-09-30T04:45:15;18.20;99.90
4518;DHT22;2271;49.464;11.070;2023-09-30T04:47:49;18.20;99.90
4518;DHT22;2271;49.464;11.070;2023-09-30T04:50:15;18.20;99.90
4518;DHT22;2271;49.464;11.070;2023-09-30T04:52:42;18.20;99.90
4518;DHT22;2271;49.464;11.070;2023-09-30T04:55:08;18.20;99.90
4518;DHT22;2271;49.464;11.070;2023-09-30T04:57:34;18.10;99.90
4518;DHT22;2271;49.464;11.070;2023-09-30T05:00:00;18.20;99.90
4518;DHT22;2271;49.464;11.070;2023-09-30T05:02:26;18.10;99.90
4518;DHT22;2271;49.464;11.070;2023-09-30T05:04:52;18.10;99.90
4518;DHT22;2271;49.464;11.070;2023-09-30T05:07:20;18.10;99.90
4518;DHT22;2271;49.464;11.070;2023-09-30T05:09:47;18.00;99.90
4518;DHT22;2271;49.464;11.070;2023-09-30T05:12:12;18.10;99.90
4518;DHT22;2271;49.464;11.070;2023-09-30T05:14:38;18.10;99.90
4518;DHT22;2271;49.464;11.070;2023-09-30T05:17:04;18.00;99.90
4518;DHT22;2271;49.464;11.070;2023-09-30T05:19:30;18.00;99.90
4518;DHT22;2271;49.464;11.070;2023-09-30T05:21:59;18.00;99.90
4518;DHT22;2271;49.464;11.070;2023-09-30T05:24:29;18.00;99.90
4518;DHT22;2271;49.464;11.070;2023-09-30T05:26:55;17.90;99.90
4518;DHT22;2271;49.464;11.070;2023-09-30T05:29:21;17.90;99.90
4518;DHT22;2271;49.464;11.070;2023-09-30T05:31:47;17.90;99.90
4518;DHT22;2271;49.464;11.070;2023-09-30T05:34:13;17.90;99.90
4518;DHT22;2271;49.464;11.070;2023-09-30T05:36:39;17.90;99.90
4518;DHT22;2271;49.464;11.070;2023-09-30T05:39:04;17.80;99.90
4518;DHT22;2271;49.464;11.070;2023-09-30T05:41:31;17.80;99.90
4518;DHT22;2271;49.464;11.070;2023-09-30T05:43:57;17.80;99.90
4518;DHT22;2271;49.464;11.070;2023-09-30T05:46:24;17.70;99.90
4518;DHT22;2271;49.464;11.070;2023-09-30T05:48:50;17.70;99.90
4518;DHT22;2271;49.464;11.070;2023-09-30T05:51:15;17.70;99.90
4518;DHT22;2271;49.464;11.070;2023-09-30T05:53:42;17.80;99.90
4518;DHT22;2271;49.464;11.070;2023-09-30T05:56:08;17.80;99.90
4518;DHT22;2271;49.464;11.070;2023-09-30T05:58:36;17.70;99.90
4518;DHT22;2271;49.464;11.070;2023-09-30T06:01:09;17.70;99.90
4518;DHT22;2271;49.464;11.070;2023-09-30T06:03:38;17.70;99.90
4518;DHT22;2271;49.464;11.070;2023-09-30T06:06:13;17.70;99.90
4518;DHT22;2271;49.464;11.070;2023-09-30T06:08:44;17.70;99.90
4518;DHT22;2271;49.464;11.070;2023-09-30T06:11:19;17.60;99.90
4518;DHT22;2271;49.464;11.070;2023-09-30T06:13:50;17.60;99.90
4518;DHT22;2271;49.464;11.070;2023-09-30T06:16:15;17.60;99.90
4518;DHT22;2271;49.464;11.070;2023-09-30T06:18:41;17.50;99.90
4518;DHT22;2271;49.464;11.070;2023-09-30T06:21:07;17.50;99.90
4518;DHT22;2271;49.464;11.070;2023-09-30T06:23:35;17.60;99.90
4518;DHT22;2271;49.464;11.070;2023-09-30T06:26:01;17.70;99.90
4518;DHT22;2271;49.464;11.070;2023-09-30T06:28:28;17.70;99.90
4518;DHT22;2271;49.464;11.070;2023-09-30T06:30:57;17.70;99.90
4518;DHT22;2271;49.464;11.070;2023-09-30T06:33:23;17.70;99.90
4518;DHT22;2271;49.464;11.070;2023-09-30T06:35:49;17.80;99.90
4518;DHT22;2271;49.464;11.070;2023-09-30T06:38:20;17.70;99.90
4518;DHT22;2271;49.464;11.070;2023-09-30T06:40:47;17.60;99.90
4518;DHT22;2271;49.464;11.070;2023-09-30T06:43:16;17.70;99.90
4518;DHT22;2271;49.464;11.070;2023-09-30T06:45:42;17.70;99.90
4518;DHT22;2271;49.464;11.070;2023-09-30T06:48:09;17.80;99.90
4518;DHT22;2271;49.464;11.070;2023-09-30T06:50:44;17.80;99.90
4518;DHT22;2271;49.464;11.070;2023-09-30T06:53:11;17.80;99.90
4518;DHT22;2271;49.464;11.070;2023-09-30T06:55:40;17.80;99.90
4518;DHT22;2271;49.464;11.070;2023-09-30T06:58:06;17.90;99.90
4518;DHT22;2271;49.464;11.070;2023-09-30T07:00:36;17.90;99.90
4518;DHT22;2271;49.464;11.070;2023-09-30T07:03:02;17.90;99.90
4518;DHT22;2271;49.464;11.070;2023-09-30T07:05:27;17.90;99.90
4518;DHT22;2271;49.464;11.070;2023-09-30T07:07:56;17.90;99.90
4518;DHT22;2271;49.464;11.070;2023-09-30T07:10:22;17.90;99.90
4518;DHT22;2271;49.464;11.070;2023-09-30T07:12:48;17.90;99.90
4518;DHT22;2271;49.464;11.070;2023-09-30T07:15:14;18.00;99.90
4518;DHT22;2271;49.464;11.070;2023-09-30T07:17:40;17.90;99.90
4518;DHT22;2271;49.464;11.070;2023-09-30T07:20:06;17.90;99.90
4518;DHT22;2271;49.464;11.070;2023-09-30T07:22:33;18.00;99.90
4518;DHT22;2271;49.464;11.070;2023-09-30T07:24:59;17.90;99.90
4518;DHT22;2271;49.464;11.070;2023-09-30T07:27:25;17.90;99.90
4518;DHT22;2271;49.464;11.070;2023-09-30T07:29:50;17.80;99.90
4518;DHT22;2271;49.464;11.070;2023-09-30T07:32:16;17.80;99.90
4518;DHT22;2271;49.464;11.070;2023-09-30T07:34:42;17.80;99.90
4518;DHT22;2271;49.464;11.070;2023-09-30T07:37:08;17.80;99.90
4518;DHT22;2271;49.464;11.070;2023-09-30T07:39:34;17.70;99.90
4518;DHT22;2271;49.464;11.070;2023-09-30T07:42:00;17.60;99.90
4518;DHT22;2271;49.464;11.070;2023-09-30T07:44:26;17.70;99.90
4518;DHT22;2271;49.464;11.070;2023-09-30T07:46:52;17.80;99.90
4518;DHT22;2271;49.464;11.070;2023-09-30T07:49:18;17.80;99.90
4518;DHT22;2271;49.464;11.070;2023-09-30T07:51:44;17.90;99.90
4518;DHT22;2271;49.464;11.070;2023-09-30T07:54:11;17.90;99.90
4518;DHT22;2271;49.464;11.070;2023-09-30T07:56:37;17.90;99.90
4518;DHT22;2271;49.464;11.070;2023-09-30T07:59:03;18.00;99.90
4518;DHT22;2271;49.464;11.070;2023-09-30T08:01:28;18.10;99.90
4518;DHT22;2271;49.464;11.070;2023-09-30T08:03:55;18.10;99.90
4518;DHT22;2271;49.464;11.070;2023-09-30T08:06:21;18.10;99.90
4518;DHT22;2271;49.464;11.070;2023-09-30T08:08:47;18.10;99.90
4518;DHT22;2271;49.464;11.070;2023-09-30T08:11:12;18.20;99.90
4518;DHT22;2271;49.464;11.070;2023-09-30T08:13:38;18.20;99.90
4518;DHT22;2271;49.464;11.070;2023-09-30T08:16:04;18.20;99.90
4518;DHT22;2271;49.464;11.070;2023-09-30T08:18:30;18.30;99.90
4518;DHT22;2271;49.464;11.070;2023-09-30T08:20:55;18.40;99.90
4518;DHT22;2271;49.464;11.070;2023-09-30T08:23:21;18.40;99.90
4518;DHT22;2271;49.464;11.070;2023-09-30T08:25:47;18.50;99.90
4518;DHT22;2271;49.464;11.070;2023-09-30T08:28:13;18.60;99.90
4518;DHT22;2271;49.464;11.070;2023-09-30T08:30:38;18.70;99.90
4518;DHT22;2271;49.464;11.070;2023-09-30T08:33:05;18.80;99.90
4518;DHT22;2271;49.464;11.070;2023-09-30T08:35:35;18.80;99.90
4518;DHT22;2271;49.464;11.070;2023-09-30T08:38:02;18.90;99.90
4518;DHT22;2271;49.464;11.070;2023-09-30T08:40:28;19.00;99.90
4518;DHT22;2271;49.464;11.070;2023-09-30T08:42:53;18.90;99.90
4518;DHT22;2271;49.464;11.070;2023-09-30T08:45:19;18.90;99.90
4518;DHT22;2271;49.464;11.070;2023-09-30T08:47:46;18.90;99.90
4518;DHT22;2271;49.464;11.070;2023-09-30T08:50:12;18.90;99.90
4518;DHT22;2271;49.464;11.070;2023-09-30T08:52:41;18.90;99.90
4518;DHT22;2271;49.464;11.070;2023-09-30T08:55:08;18.90;99.90
4518;DHT22;2271;49.464;11.070;2023-09-30T08:57:37;19.10;99.90
4518;DHT22;2271;49.464;11.070;2023-09-30T09:00:05;19.10;99.90
4518;DHT22;2271;49.464;11.070;2023-09-30T09:02:34;19.20;99.90
4518;DHT22;2271;49.464;11.070;2023-09-30T09:05:01;19.20;99.90
4518;DHT22;2271;49.464;11.070;2023-09-30T09:07:27;19.20;99.90
4518;DHT22;2271;49.464;11.070;2023-09-30T09:10:12;19.70;99.90
4518;DHT22;2271;49.464;11.070;2023-09-30T09:12:42;20.50;99.90
4518;DHT22;2271;49.464;11.070;2023-09-30T09:15:20;20.70;99.90
4518;DHT22;2271;49.464;11.070;2023-09-30T09:17:47;20.90;99.90
4518;DHT22;2271;49.464;11.070;2023-09-30T09:20:20;20.80;99.90
4518;DHT22;2271;49.464;11.070;2023-09-30T09:22:51;20.40;99.90
4518;DHT22;2271;49.464;11.070;2023-09-30T09:25:19;20.20;99.90
4518;DHT22;2271;49.464;11.070;2023-09-30T09:27:45;20.20;99.90
4518;DHT22;2271;49.464;11.070;2023-09-30T09:30:27;20.20;99.90
4518;DHT22;2271;49.464;11.070;2023-09-30T09:33:03;20.30;99.90
4518;DHT22;2271;49.464;11.070;2023-09-30T09:35:31;20.60;99.90
4518;DHT22;2271;49.464;11.070;2023-09-30T09:38:05;21.10;99.90
4518;DHT22;2271;49.464;11.070;2023-09-30T09:40:36;21.60;99.90
4518;DHT22;2271;49.464;11.070;2023-09-30T09:43:04;21.90;99.90
4518;DHT22;2271;49.464;11.070;2023-09-30T09:45:35;22.00;99.90
4518;DHT22;2271;49.464;11.070;2023-09-30T09:48:03;22.10;99.90
4518;DHT22;2271;49.464;11.070;2023-09-30T09:50:30;21.90;99.90
4518;DHT22;2271;49.464;11.070;2023-09-30T09:52:58;21.70;99.90
4518;DHT22;2271;49.464;11.070;2023-09-30T09:55:26;21.50;99.90
4518;DHT22;2271;49.464;11.070;2023-09-30T09:57:53;21.40;99.90
4518;DHT22;2271;49.464;11.070;2023-09-30T10:00:22;21.40;99.90
4518;DHT22;2271;49.464;11.070;2023-09-30T10:02:49;21.30;99.90
4518;DHT22;2271;49.464;11.070;2023-09-30T10:05:16;21.20;99.90
4518;DHT22;2271;49.464;11.070;2023-09-30T10:08:00;21.30;99.90
4518;DHT22;2271;49.464;11.070;2023-09-30T10:10:27;21.30;99.90
4518;DHT22;2271;49.464;11.070;2023-09-30T10:12:53;21.30;99.90
4518;DHT22;2271;49.464;11.070;2023-09-30T10:20:34;21.30;99.90
4518;DHT22;2271;49.464;11.070;2023-09-30T10:23:21;21.20;99.90
4518;DHT22;2271;49.464;11.070;2023-09-30T10:25:51;21.20;99.90
4518;DHT22;2271;49.464;11.070;2023-09-30T10:28:39;21.10;99.90
4518;DHT22;2271;49.464;11.070;2023-09-30T10:31:16;21.00;99.90
4518;DHT22;2271;49.464;11.070;2023-09-30T10:36:36;20.80;99.90
4518;DHT22;2271;49.464;11.070;2023-09-30T10:39:11;20.70;99.90
4518;DHT22;2271;49.464;11.070;2023-09-30T10:46:52;20.30;99.90
4518;DHT22;2271;49.464;11.070;2023-09-30T10:51:54;20.20;99.90
4518;DHT22;2271;49.464;11.070;2023-09-30T10:54:27;20.20;99.90
4518;DHT22;2271;49.464;11.070;2023-09-30T10:56:54;20.20;99.90
4518;DHT22;2271;49.464;11.070;2023-09-30T10:59:23;20.10;99.90
4518;DHT22;2271;49.464;11.070;2023-09-30T11:01:50;20.10;99.90
4518;DHT22;2271;49.464;11.070;2023-09-30T11:04:15;20.20;99.90
4518;DHT22;2271;49.464;11.070;2023-09-30T11:06:42;20.30;99.90
4518;DHT22;2271;49.464;11.070;2023-09-30T11:09:08;20.30;99.90
4518;DHT22;2271;49.464;11.070;2023-09-30T11:11:48;20.30;99.90
4518;DHT22;2271;49.464;11.070;2023-09-30T11:16:46;20.60;99.90
4518;DHT22;2271;49.464;11.070;2023-09-30T11:19:12;20.60;99.90
4518;DHT22;2271;49.464;11.070;2023-09-30T11:21:41;20.70;99.90
4518;DHT22;2271;49.464;11.070;2023-09-30T11:24:09;20.70;99.90
4518;DHT22;2271;49.464;11.070;2023-09-30T11:26:37;20.70;99.90
4518;DHT22;2271;49.464;11.070;2023-09-30T11:29:06;20.80;99.90
4518;DHT22;2271;49.464;11.070;2023-09-30T11:31:32;20.80;99.90
4518;DHT22;2271;49.464;11.070;2023-09-30T11:34:00;20.90;99.90
4518;DHT22;2271;49.464;11.070;2023-09-30T11:36:30;20.90;99.90
4518;DHT22;2271;49.464;11.070;2023-09-30T11:38:56;21.00;99.90
4518;DHT22;2271;49.464;11.070;2023-09-30T11:41:22;21.10;99.90
4518;DHT22;2271;49.464;11.070;2023-09-30T11:46:47;21.00;99.90
4518;DHT22;2271;49.464;11.070;2023-09-30T11:49:37;20.90;99.90
4518;DHT22;2271;49.464;11.070;2023-09-30T11:52:10;20.90;99.90
4518;DHT22;2271;49.464;11.070;2023-09-30T11:54:37;20.80;99.90
4518;DHT22;2271;49.464;11.070;2023-09-30T11:57:05;20.80;99.90
4518;DHT22;2271;49.464;11.070;2023-09-30T11:59:31;20.80;99.90
4518;DHT22;2271;49.464;11.070;2023-09-30T12:01:57;20.70;99.90
4518;DHT22;2271;49.464;11.070;2023-09-30T12:04:24;20.70;99.90
4518;DHT22;2271;49.464;11.070;2023-09-30T12:06:50;20.60;99.90
4518;DHT22;2271;49.464;11.070;2023-09-30T12:09:16;20.30;99.90
4518;DHT22;2271;49.464;11.070;2023-09-30T12:11:48;20.30;99.90
4518;DHT22;2271;49.464;11.070;2023-09-30T12:14:14;20.40;99.90
4518;DHT22;2271;49.464;11.070;2023-09-30T12:16:41;20.50;99.90
4518;DHT22;2271;49.464;11.070;2023-09-30T12:19:07;20.60;99.90
4518;DHT22;2271;49.464;11.070;2023-09-30T12:21:32;20.70;99.90
4518;DHT22;2271;49.464;11.070;2023-09-30T12:24:00;20.90;99.90
4518;DHT22;2271;49.464;11.070;2023-09-30T12:26:25;20.90;99.90
4518;DHT22;2271;49.464;11.070;2023-09-30T12:28:51;21.10;99.90
4518;DHT22;2271;49.464;11.070;2023-09-30T12:31:18;21.20;99.90
4518;DHT22;2271;49.464;11.070;2023-09-30T12:33:45;21.10;99.90
4518;DHT22;2271;49.464;11.070;2023-09-30T12:36:15;21.20;99.90
4518;DHT22;2271;49.464;11.070;2023-09-30T12:38:42;21.30;99.90
4518;DHT22;2271;49.464;11.070;2023-09-30T12:41:08;21.50;99.90
4518;DHT22;2271;49.464;11.070;2023-09-30T12:43:33;21.60;99.90
4518;DHT22;2271;49.464;11.070;2023-09-30T12:45:59;21.80;99.90
4518;DHT22;2271;49.464;11.070;2023-09-30T12:48:25;21.90;99.90
4518;DHT22;2271;49.464;11.070;2023-09-30T12:50:51;21.90;99.90
4518;DHT22;2271;49.464;11.070;2023-09-30T12:53:16;21.70;99.90
4518;DHT22;2271;49.464;11.070;2023-09-30T12:55:42;21.30;99.90
4518;DHT22;2271;49.464;11.070;2023-09-30T12:58:08;21.40;99.90
4518;DHT22;2271;49.464;11.070;2023-09-30T13:00:34;21.60;99.90
4518;DHT22;2271;49.464;11.070;2023-09-30T13:03:02;21.80;99.90
4518;DHT22;2271;49.464;11.070;2023-09-30T13:05:28;21.90;99.90
4518;DHT22;2271;49.464;11.070;2023-09-30T13:07:56;22.00;99.90
4518;DHT22;2271;49.464;11.070;2023-09-30T13:10:23;22.10;99.90
4518;DHT22;2271;49.464;11.070;2023-09-30T13:12:49;22.10;99.90
4518;DHT22;2271;49.464;11.070;2023-09-30T13:15:16;22.10;99.90
4518;DHT22;2271;49.464;11.070;2023-09-30T13:17:42;22.10;99.90
4518;DHT22;2271;49.464;11.070;2023-09-30T13:20:09;21.80;99.90
4518;DHT22;2271;49.464;11.070;2023-09-30T13:22:35;21.70;99.90
4518;DHT22;2271;49.464;11.070;2023-09-30T13:25:05;21.50;99.90
4518;DHT22;2271;49.464;11.070;2023-09-30T13:27:31;21.50;99.90
4518;DHT22;2271;49.464;11.070;2023-09-30T13:30:01;21.80;99.90
4518;DHT22;2271;49.464;11.070;2023-09-30T13:32:27;21.90;99.90
4518;DHT22;2271;49.464;11.070;2023-09-30T13:34:53;22.10;99.90
4518;DHT22;2271;49.464;11.070;2023-09-30T13:37:19;22.20;99.90
4518;DHT22;2271;49.464;11.070;2023-09-30T13:39:45;22.20;99.90
4518;DHT22;2271;49.464;11.070;2023-09-30T13:42:11;22.20;99.90
4518;DHT22;2271;49.464;11.070;2023-09-30T13:44:37;22.10;99.90
4518;DHT22;2271;49.464;11.070;2023-09-30T13:47:03;22.10;99.90
4518;DHT22;2271;49.464;11.070;2023-09-30T13:49:29;22.10;99.90
4518;DHT22;2271;49.464;11.070;2023-09-30T13:51:56;22.10;99.90
4518;DHT22;2271;49.464;11.070;2023-09-30T13:54:21;22.10;99.90
4518;DHT22;2271;49.464;11.070;2023-09-30T13:56:47;22.10;99.90
4518;DHT22;2271;49.464;11.070;2023-09-30T13:59:13;22.20;99.90
4518;DHT22;2271;49.464;11.070;2023-09-30T14:01:39;22.20;99.90
4518;DHT22;2271;49.464;11.070;2023-09-30T14:04:07;22.10;99.90
4518;DHT22;2271;49.464;11.070;2023-09-30T14:06:32;22.00;99.90
4518;DHT22;2271;49.464;11.070;2023-09-30T14:08:58;21.80;99.90
4518;DHT22;2271;49.464;11.070;2023-09-30T14:11:24;21.70;99.90
4518;DHT22;2271;49.464;11.070;2023-09-30T14:13:50;21.70;99.90
4518;DHT22;2271;49.464;11.070;2023-09-30T14:16:15;21.60;99.90
4518;DHT22;2271;49.464;11.070;2023-09-30T14:18:41;21.50;99.90
4518;DHT22;2271;49.464;11.070;2023-09-30T14:21:08;21.50;99.90
4518;DHT22;2271;49.464;11.070;2023-09-30T14:23:34;21.50;99.90
4518;DHT22;2271;49.464;11.070;2023-09-30T14:25:59;21.40;99.90
4518;DHT22;2271;49.464;11.070;2023-09-30T14:28:26;21.40;99.90
4518;DHT22;2271;49.464;11.070;2023-09-30T14:30:51;21.10;99.90
4518;DHT22;2271;49.464;11.070;2023-09-30T14:33:17;20.80;99.90
4518;DHT22;2271;49.464;11.070;2023-09-30T14:35:45;20.50;99.90
4518;DHT22;2271;49.464;11.070;2023-09-30T14:38:11;20.30;99.90
4518;DHT22;2271;49.464;11.070;2023-09-30T14:40:40;20.40;99.90
4518;DHT22;2271;49.464;11.070;2023-09-30T14:43:07;20.70;99.90
4518;DHT22;2271;49.464;11.070;2023-09-30T14:45:37;20.80;99.90
4518;DHT22;2271;49.464;11.070;2023-09-30T14:48:05;20.90;99.90
4518;DHT22;2271;49.464;11.070;2023-09-30T14:50:33;21.00;99.90
4518;DHT22;2271;49.464;11.070;2023-09-30T14:52:58;21.00;99.90
4518;DHT22;2271;49.464;11.070;2023-09-30T14:55:24;21.10;99.90
4518;DHT22;2271;49.464;11.070;2023-09-30T14:57:50;21.00;99.90
4518;DHT22;2271;49.464;11.070;2023-09-30T15:00:15;21.00;99.90
4518;DHT22;2271;49.464;11.070;2023-09-30T15:02:42;20.90;99.90
4518;DHT22;2271;49.464;11.070;2023-09-30T15:05:08;20.90;99.90
4518;DHT22;2271;49.464;11.070;2023-09-30T15:07:34;20.90;99.90
4518;DHT22;2271;49.464;11.070;2023-09-30T15:10:03;20.80;99.90
4518;DHT22;2271;49.464;11.070;2023-09-30T15:12:29;20.70;99.90
4518;DHT22;2271;49.464;11.070;2023-09-30T15:14:55;20.60;99.90
4518;DHT22;2271;49.464;11.070;2023-09-30T15:17:21;20.50;99.90
4518;DHT22;2271;49.464;11.070;2023-09-30T15:19:47;20.40;99.90
4518;DHT22;2271;49.464;11.070;2023-09-30T15:22:13;20.20;99.90
4518;DHT22;2271;49.464;11.070;2023-09-30T15:24:40;20.20;99.90
4518;DHT22;2271;49.464;11.070;2023-09-30T15:27:05;20.20;99.90
4518;DHT22;2271;49.464;11.070;2023-09-30T15:29:31;20.20;99.90
4518;DHT22;2271;49.464;11.070;2023-09-30T15:31:56;20.20;99.90
4518;DHT22;2271;49.464;11.070;2023-09-30T15:34:22;20.20;99.90
4518;DHT22;2271;49.464;11.070;2023-09-30T15:36:48;20.10;99.90
4518;DHT22;2271;49.464;11.070;2023-09-30T15:39:13;20.10;99.90
4518;DHT22;2271;49.464;11.070;2023-09-30T15:41:39;20.10;99.90
4518;DHT22;2271;49.464;11.070;2023-09-30T15:44:05;20.10;99.90
4518;DHT22;2271;49.464;11.070;2023-09-30T15:46:31;20.00;99.90
4518;DHT22;2271;49.464;11.070;2023-09-30T15:48:57;19.90;99.90
4518;DHT22;2271;49.464;11.070;2023-09-30T15:51:22;19.90;99.90
4518;DHT22;2271;49.464;11.070;2023-09-30T15:53:48;19.80;99.90
4518;DHT22;2271;49.464;11.070;2023-09-30T15:56:13;19.80;99.90
4518;DHT22;2271;49.464;11.070;2023-09-30T15:58:39;19.80;99.90
4518;DHT22;2271;49.464;11.070;2023-09-30T16:01:04;19.80;99.90
4518;DHT22;2271;49.464;11.070;2023-09-30T16:03:30;19.70;99.90
4518;DHT22;2271;49.464;11.070;2023-09-30T16:05:56;19.70;99.90